Terminal Aerodrome Forecast
Issued by NWS

Home | Current Version | Previous Version | Text Only | Print | Product List | Glossary On
Versions: 1 2 3 4 5 6 7 8 9 10 11 12 13 14
666
FTUS44 KEPZ 201141
TAFLRU
TAF
KLRU 201141Z 2012/2112 07006KT P6SM SCT100 BKN250
     FM201900 17007KT P6SM VCTS SCT050CB BKN100
      TEMPO 2021/2101 VRB25G40KT 2SM TSRA BKN040CB
     FM210100 20010KT P6SM VCTS SCT050CB BKN120
      TEMPO 2101/2105 VRB20G30KT 2SM TSRA BKN040CB
     FM210600 VRB05KT P6SM SCT050 BKN120=

USA.gov is the U.S. government's official web portal to all federal, state and local government web resources and services.